Time;durP1;ratioP1;P1;durP2;ratioP2;P2;SDS_P1;SDS_P2;PMS_P1;PMS_P2;Temp;Humidity;BMP_temperature;BMP_pressure;BME280_temperature;BME280_humidity;BME280_pressure;Samples;Min_cycle;Max_cycle;Signal;HPM_P1;HPM_P2
2023/03/22 00:01:14;;;;;;;;;;;;;;;;;;5071525;28;19910;-67
2023/03/22 00:03:40;;;;;;;;;;;;;;;;;;5071378;28;19909;-66
2023/03/22 00:06:06;;;;;;;;;;;;;;;;;;5071616;28;20124;-66
2023/03/22 00:08:32;;;;;;;;;;;;;;;;;;5053535;28;19953;-66
2023/03/22 00:10:58;;;;;;;;;;;;;;;;;;5071445;28;19904;-68
2023/03/22 00:13:24;;;;;;;;;;;;;;;;;;5071268;28;19952;-68
2023/03/22 00:15:50;;;;;;;;;;;;;;;;;;5071958;28;19905;-67
2023/03/22 00:18:16;;;;;;;;;;;;;;;;;;5053334;28;20280;-66
2023/03/22 00:20:41;;;;;;;;;;;;;;;;;;5054087;28;20038;-67
2023/03/22 00:23:07;;;;;;;;;;;;;;;;;;5071737;28;19904;-66
2023/03/22 00:25:33;;;;;;;;;;;;;;;;;;5071823;28;20420;-68
2023/03/22 00:27:59;;;;;;;;;;;;;;;;;;5071981;28;20026;-66
2023/03/22 00:30:25;;;;;;;;;;;;;;;;;;5071965;28;19904;-67
2023/03/22 00:32:51;;;;;;;;;;;;;;;;;;5072187;28;19905;-66
2023/03/22 00:35:17;;;;;;;;;;;;;;;;;;5071447;28;19908;-67
2023/03/22 00:37:43;;;;;;;;;;;;;;;;;;5071652;28;19995;-67
2023/03/22 00:40:09;;;;;;;;;;;;;;;;;;5071694;28;20257;-66
2023/03/22 00:42:35;;;;;;;;;;;;;;;;;;5071819;28;19904;-67
2023/03/22 00:45:01;;;;;;;;;;;;;;;;;;5071378;28;19946;-66
2023/03/22 00:47:26;;;;;;;;;;;;;;;;;;5071506;28;19905;-66
2023/03/22 00:49:52;;;;;;;;;;;;;;;;;;5053457;28;19957;-67
2023/03/22 00:52:18;;;;;;;;;;;;;;;;;;5053505;28;20003;-67
2023/03/22 00:54:44;;;;;;;;;;;;;;;;;;5053110;28;20026;-65
2023/03/22 00:57:11;;;;;;;;;;;;;;;;;;5071163;28;20356;-66
2023/03/22 00:59:38;;;;;;;;;;;;;;;;;;5071324;28;20503;-67
2023/03/22 01:02:04;;;;;;;;;;;;;;;;;;5071906;28;20321;-67
2023/03/22 01:04:30;;;;;;;;;;;;;;;;;;5072056;28;20026;-67
2023/03/22 01:07:01;;;;;;;;;;;;;;;;;;5071394;28;19904;-67
2023/03/22 01:09:28;;;;;;;;;;;;;;;;;;5071441;28;19915;-67
2023/03/22 01:11:55;;;;;;;;;;;;;;;;;;5071309;28;19995;-67
2023/03/22 01:14:21;;;;;;;;;;;;;;;;;;5070929;28;20273;-67
2023/03/22 01:16:46;;;;;;;;;;;;;;;;;;5070928;28;19916;-67
2023/03/22 01:19:12;;;;;;;;;;;;;;;;;;5071168;28;19923;-67
2023/03/22 01:21:38;;;;;;;;;;;;;;;;;;5071185;28;19927;-68
2023/03/22 01:24:04;;;;;;;;;;;;;;;;;;5070734;28;20000;-67
2023/03/22 01:26:30;;;;;;;;;;;;;;;;;;5053075;28;20282;-67
2023/03/22 01:28:56;;;;;;;;;;;;;;;;;;5070313;28;19939;-66
2023/03/22 01:31:22;;;;;;;;;;;;;;;;;;5070633;28;19901;-67
2023/03/22 01:33:48;;;;;;;;;;;;;;;;;;5070705;28;20276;-68
2023/03/22 01:36:14;;;;;;;;;;;;;;;;;;5070581;28;20409;-67
2023/03/22 01:38:40;;;;;;;;;;;;;;;;;;5070796;28;19927;-67
2023/03/22 01:41:06;;;;;;;;;;;;;;;;;;5070859;28;19904;-66
2023/03/22 01:43:31;;;;;;;;;;;;;;;;;;5070539;28;19915;-67
2023/03/22 01:45:57;;;;;;;;;;;;;;;;;;5070915;28;19932;-67
2023/03/22 01:48:23;;;;;;;;;;;;;;;;;;5052665;28;19959;-66
2023/03/22 01:50:49;;;;;;;;;;;;;;;;;;5070823;28;19915;-66
2023/03/22 01:53:17;;;;;;;;;;;;;;;;;;5070524;28;19905;-67
2023/03/22 01:55:44;;;;;;;;;;;;;;;;;;5070498;28;19937;-67
2023/03/22 01:58:10;;;;;;;;;;;;;;;;;;5070398;28;19909;-66
2023/03/22 02:00:36;;;;;;;;;;;;;;;;;;5070724;28;19904;-67
2023/03/22 02:03:01;;;;;;;;;;;;;;;;;;5070350;28;19905;-64
2023/03/22 02:05:27;;;;;;;;;;;;;;;;;;5070563;28;19908;-66
2023/03/22 02:07:53;;;;;;;;;;;;;;;;;;5070477;28;19904;-66
2023/03/22 02:10:19;;;;;;;;;;;;;;;;;;5052686;28;19925;-67
2023/03/22 02:12:45;;;;;;;;;;;;;;;;;;5070545;28;19911;-67
2023/03/22 02:15:11;;;;;;;;;;;;;;;;;;5052305;28;19912;-66
2023/03/22 02:17:37;;;;;;;;;;;;;;;;;;5070558;28;19915;-66
2023/03/22 02:20:08;;;;;;;;;;;;;;;;;;5052555;28;19905;-66
2023/03/22 02:22:37;;;;;;;;;;;;;;;;;;5070365;28;19901;-66
2023/03/22 02:25:03;;;;;;;;;;;;;;;;;;5052541;28;19904;-67
2023/03/22 02:27:29;;;;;;;;;;;;;;;;;;5052644;28;19930;-66
2023/03/22 02:29:55;;;;;;;;;;;;;;;;;;5070917;28;19900;-66
2023/03/22 02:32:21;;;;;;;;;;;;;;;;;;5052265;28;19908;-67
2023/03/22 02:34:47;;;;;;;;;;;;;;;;;;5070089;28;19901;-67
2023/03/22 02:37:12;;;;;;;;;;;;;;;;;;5070008;28;19919;-67
2023/03/22 02:39:38;;;;;;;;;;;;;;;;;;5070433;28;20000;-68
2023/03/22 02:42:04;;;;;;;;;;;;;;;;;;5073210;28;19957;-67
2023/03/22 02:44:30;;;;;;;;;;;;;;;;;;5072598;28;19911;-68
2023/03/22 02:46:56;;;;;;;;;;;;;;;;;;5074004;28;20058;-67
2023/03/22 02:49:22;;;;;;;;;;;;;;;;;;5073747;28;19908;-67
2023/03/22 02:51:48;;;;;;;;;;;;;;;;;;5073975;28;19908;-68
2023/03/22 02:54:14;;;;;;;;;;;;;;;;;;5073850;28;19904;-67
2023/03/22 02:56:40;;;;;;;;;;;;;;;;;;5073624;28;20475;-66
2023/03/22 02:59:06;;;;;;;;;;;;;;;;;;5073878;28;19969;-66
2023/03/22 03:01:32;;;;;;;;;;;;;;;;;;5073691;28;20375;-67
2023/03/22 03:03:58;;;;;;;;;;;;;;;;;;5073414;28;19904;-67
2023/03/22 03:06:24;;;;;;;;;;;;;;;;;;5072437;28;20302;-67
2023/03/22 03:08:50;;;;;;;;;;;;;;;;;;5073584;28;19920;-67
2023/03/22 03:11:16;;;;;;;;;;;;;;;;;;5072248;28;20382;-68
2023/03/22 03:13:42;;;;;;;;;;;;;;;;;;5073370;28;20261;-67
2023/03/22 03:16:08;;;;;;;;;;;;;;;;;;5069031;28;19951;-67
2023/03/22 03:18:34;;;;;;;;;;;;;;;;;;5071676;28;19955;-67
2023/03/22 03:21:01;;;;;;;;;;;;;;;;;;5073407;28;19950;-67
2023/03/22 03:23:27;;;;;;;;;;;;;;;;;;5055674;28;20272;-66
2023/03/22 03:25:53;;;;;;;;;;;;;;;;;;5073179;28;19904;-67
2023/03/22 03:28:21;;;;;;;;;;;;;;;;;;5071995;28;20306;-67
2023/03/22 03:30:48;;;;;;;;;;;;;;;;;;5073277;28;20289;-68
2023/03/22 03:33:15;;;;;;;;;;;;;;;;;;5071737;28;20019;-67
2023/03/22 03:35:41;;;;;;;;;;;;;;;;;;5073204;28;19912;-66
2023/03/22 03:38:07;;;;;;;;;;;;;;;;;;5072837;28;19912;-66
2023/03/22 03:40:33;;;;;;;;;;;;;;;;;;5073109;28;19904;-67
2023/03/22 03:42:59;;;;;;;;;;;;;;;;;;5073049;28;19911;-66
2023/03/22 03:45:25;;;;;;;;;;;;;;;;;;5072751;28;19908;-66
2023/03/22 03:47:55;;;;;;;;;;;;;;;;;;5054937;28;19904;-67
2023/03/22 03:50:21;;;;;;;;;;;;;;;;;;5073090;28;20119;-66
2023/03/22 03:52:47;;;;;;;;;;;;;;;;;;5071751;28;19904;-68
2023/03/22 03:55:13;;;;;;;;;;;;;;;;;;5072299;28;19916;-67
2023/03/22 03:57:39;;;;;;;;;;;;;;;;;;5072570;28;20270;-67
2023/03/22 04:00:05;;;;;;;;;;;;;;;;;;5054747;28;20039;-68
2023/03/22 04:02:31;;;;;;;;;;;;;;;;;;5054660;28;20287;-67
2023/03/22 04:04:57;;;;;;;;;;;;;;;;;;5072330;28;20006;-66
2023/03/22 04:07:23;;;;;;;;;;;;;;;;;;5072247;28;19908;-67
2023/03/22 04:09:49;;;;;;;;;;;;;;;;;;5054499;28;19904;-67
2023/03/22 04:12:15;;;;;;;;;;;;;;;;;;5054543;28;19904;-67
2023/03/22 04:14:40;;;;;;;;;;;;;;;;;;5072016;28;20376;-66
2023/03/22 04:17:06;;;;;;;;;;;;;;;;;;5072162;28;19962;-66
2023/03/22 04:19:32;;;;;;;;;;;;;;;;;;5072339;28;19905;-68
2023/03/22 04:21:59;;;;;;;;;;;;;;;;;;5072324;28;19908;-66
2023/03/22 04:24:24;;;;;;;;;;;;;;;;;;5071891;28;20386;-66
2023/03/22 04:26:51;;;;;;;;;;;;;;;;;;5072025;28;19995;-66
2023/03/22 04:29:17;;;;;;;;;;;;;;;;;;5071950;28;19904;-67
2023/03/22 04:31:43;;;;;;;;;;;;;;;;;;5054019;28;20333;-67
2023/03/22 04:34:09;;;;;;;;;;;;;;;;;;5053949;28;19904;-67
2023/03/22 04:36:38;;;;;;;;;;;;;;;;;;5071862;28;19904;-66
2023/03/22 04:39:04;;;;;;;;;;;;;;;;;;5072002;28;19904;-65
2023/03/22 04:41:31;;;;;;;;;;;;;;;;;;5071702;28;20005;-66
2023/03/22 04:44:02;;;;;;;;;;;;;;;;;;5071576;28;19905;-66
2023/03/22 04:46:28;;;;;;;;;;;;;;;;;;5071554;28;19912;-66
2023/03/22 04:48:53;;;;;;;;;;;;;;;;;;5071602;28;20309;-66
2023/03/22 04:51:19;;;;;;;;;;;;;;;;;;5053397;28;19908;-67
2023/03/22 04:53:45;;;;;;;;;;;;;;;;;;5071408;28;19904;-66
2023/03/22 04:56:11;;;;;;;;;;;;;;;;;;5071279;28;19963;-65
2023/03/22 04:58:38;;;;;;;;;;;;;;;;;;5071614;28;19912;-66
2023/03/22 05:01:04;;;;;;;;;;;;;;;;;;5053748;28;19904;-67
2023/03/22 05:03:30;;;;;;;;;;;;;;;;;;5071034;28;19905;-67
2023/03/22 05:05:56;;;;;;;;;;;;;;;;;;5071228;28;19905;-68
2023/03/22 05:08:24;;;;;;;;;;;;;;;;;;5071045;28;20044;-67
2023/03/22 05:10:51;;;;;;;;;;;;;;;;;;5071023;28;19936;-68
2023/03/22 05:13:16;;;;;;;;;;;;;;;;;;5070664;28;19904;-67
2023/03/22 05:15:42;;;;;;;;;;;;;;;;;;5070797;28;19911;-67
2023/03/22 05:18:08;;;;;;;;;;;;;;;;;;5067518;28;20050;-67
2023/03/22 05:20:35;;;;;;;;;;;;;;;;;;5070614;28;19954;-66
2023/03/22 05:23:01;;;;;;;;;;;;;;;;;;5067811;28;19954;-66
2023/03/22 05:25:27;;;;;;;;;;;;;;;;;;5070745;28;19904;-67
2023/03/22 05:27:53;;;;;;;;;;;;;;;;;;5069544;28;20438;-65
2023/03/22 05:30:19;;;;;;;;;;;;;;;;;;5071297;28;19904;-66
2023/03/22 05:32:46;;;;;;;;;;;;;;;;;;5070919;28;19905;-68
2023/03/22 05:35:12;;;;;;;;;;;;;;;;;;5070552;28;19908;-64
2023/03/22 05:37:38;;;;;;;;;;;;;;;;;;5069323;28;19908;-66
2023/03/22 05:40:04;;;;;;;;;;;;;;;;;;5070761;28;20032;-65
2023/03/22 05:42:31;;;;;;;;;;;;;;;;;;5069430;28;19908;-66
2023/03/22 05:44:56;;;;;;;;;;;;;;;;;;5069425;28;20689;-67
2023/03/22 05:47:22;;;;;;;;;;;;;;;;;;5070649;28;19963;-67
2023/03/22 05:49:48;;;;;;;;;;;;;;;;;;5070712;28;19904;-65
2023/03/22 05:52:14;;;;;;;;;;;;;;;;;;5070510;28;19911;-67
2023/03/22 05:54:40;;;;;;;;;;;;;;;;;;5068959;28;19908;-67
2023/03/22 05:57:06;;;;;;;;;;;;;;;;;;5094444;22;20134;-57
2023/03/22 05:59:32;;;;;;;;;;;;;;;;;;5071746;28;19904;-60
2023/03/22 06:01:58;;;;;;;;;;;;;;;;;;5071717;28;20324;-55
2023/03/22 06:04:24;;;;;;;;;;;;;;;;;;5071424;28;19948;-61
2023/03/22 06:06:50;;;;;;;;;;;;;;;;;;5071424;28;19912;-59
2023/03/22 06:09:16;;;;;;;;;;;;;;;;;;5071843;28;19904;-56
2023/03/22 06:11:42;;;;;;;;;;;;;;;;;;5072100;28;20018;-58
2023/03/22 06:14:08;;;;;;;;;;;;;;;;;;5071786;28;19987;-54
2023/03/22 06:16:33;;;;;;;;;;;;;;;;;;5074167;28;19969;-53
2023/03/22 06:18:59;;;;;;;;;;;;;;;;;;5075680;28;20288;-59
2023/03/22 06:21:25;;;;;;;;;;;;;;;;;;5075681;28;19908;-56
2023/03/22 06:23:51;;;;;;;;;;;;;;;;;;5075049;28;19909;-57
2023/03/22 06:26:17;;;;;;;;;;;;;;;;;;5075158;28;19905;-58
2023/03/22 06:28:43;;;;;;;;;;;;;;;;;;5075195;28;19951;-58
2023/03/22 06:31:09;;;;;;;;;;;;;;;;;;5056287;28;19996;-60
2023/03/22 06:33:35;;;;;;;;;;;;;;;;;;5074444;28;19914;-56
2023/03/22 06:36:01;;;;;;;;;;;;;;;;;;5075196;28;19908;-55
2023/03/22 06:38:26;;;;;;;;;;;;;;;;;;5074944;28;19915;-59
2023/03/22 06:40:52;;;;;;;;;;;;;;;;;;5073730;28;19927;-60
2023/03/22 06:43:18;;;;;;;;;;;;;;;;;;5073391;28;19911;-59
2023/03/22 06:45:44;;;;;;;;;;;;;;;;;;5074657;28;19904;-58
2023/03/22 06:48:10;;;;;;;;;;;;;;;;;;5073757;28;19992;-60
2023/03/22 06:50:37;;;;;;;;;;;;;;;;;;5074220;28;19908;-58
2023/03/22 06:53:03;;;;;;;;;;;;;;;;;;5073204;28;19919;-58
2023/03/22 06:55:33;;;;;;;;;;;;;;;;;;5074784;28;20291;-59
2023/03/22 06:57:59;;;;;;;;;;;;;;;;;;5074613;28;19908;-56
2023/03/22 07:00:25;;;;;;;;;;;;;;;;;;5074370;28;19908;-59
2023/03/22 07:02:51;;;;;;;;;;;;;;;;;;5074479;28;19964;-57
2023/03/22 07:05:17;;;;;;;;;;;;;;;;;;5074276;28;19952;-60
2023/03/22 07:07:42;;;;;;;;;;;;;;;;;;5072738;28;19944;-55
2023/03/22 07:10:08;;;;;;;;;;;;;;;;;;5074595;28;19911;-57
2023/03/22 07:12:34;;;;;;;;;;;;;;;;;;5075020;28;19987;-61
2023/03/22 07:15:00;;;;;;;;;;;;;;;;;;5075834;28;19908;-61
2023/03/22 07:17:26;;;;;;;;;;;;;;;;;;5075943;28;19908;-60
2023/03/22 07:19:52;;;;;;;;;;;;;;;;;;5073547;28;20003;-60
2023/03/22 07:22:21;;;;;;;;;;;;;;;;;;5073879;28;19926;-56
2023/03/22 07:24:46;;;;;;;;;;;;;;;;;;5074058;28;19919;-60
2023/03/22 07:27:12;;;;;;;;;;;;;;;;;;5073581;28;20288;-57
2023/03/22 07:29:38;;;;;;;;;;;;;;;;;;5073774;28;19904;-58
2023/03/22 07:32:04;;;;;;;;;;;;;;;;;;5073941;28;19905;-58
2023/03/22 07:34:30;;;;;;;;;;;;;;;;;;5073066;28;19908;-60
2023/03/22 07:36:56;;;;;;;;;;;;;;;;;;5073850;28;20391;-55
2023/03/22 07:39:23;;;;;;;;;;;;;;;;;;5073640;28;19905;-60
2023/03/22 07:41:49;;;;;;;;;;;;;;;;;;5073523;28;19958;-59
2023/03/22 07:44:15;;;;;;;;;;;;;;;;;;5073170;28;19908;-57
2023/03/22 07:46:41;;;;;;;;;;;;;;;;;;5072111;28;19904;-58
2023/03/22 07:49:07;;;;;;;;;;;;;;;;;;5072912;28;20318;-56
2023/03/22 07:51:33;;;;;;;;;;;;;;;;;;5073288;28;19939;-54
2023/03/22 07:53:59;;;;;;;;;;;;;;;;;;5072956;28;20324;-60
2023/03/22 07:56:25;;;;;;;;;;;;;;;;;;5073485;28;20114;-59
2023/03/22 07:58:51;;;;;;;;;;;;;;;;;;5073106;28;19908;-59
2023/03/22 08:01:16;;;;;;;;;;;;;;;;;;5073276;28;20280;-59
2023/03/22 08:03:42;;;;;;;;;;;;;;;;;;5073043;28;20007;-60
2023/03/22 08:06:09;;;;;;;;;;;;;;;;;;5073171;28;19911;-61
2023/03/22 08:08:35;;;;;;;;;;;;;;;;;;5073191;28;19911;-61
2023/03/22 08:11:01;;;;;;;;;;;;;;;;;;5071885;28;19920;-61
2023/03/22 08:13:27;;;;;;;;;;;;;;;;;;5073073;28;20361;-61
2023/03/22 08:15:53;;;;;;;;;;;;;;;;;;5073227;28;20011;-61
2023/03/22 08:18:19;;;;;;;;;;;;;;;;;;5071140;28;19908;-62
2023/03/22 08:20:45;;;;;;;;;;;;;;;;;;5055289;28;19913;-61
2023/03/22 08:23:14;;;;;;;;;;;;;;;;;;5072831;28;19908;-61
2023/03/22 08:25:40;;;;;;;;;;;;;;;;;;5073002;28;20503;-59
2023/03/22 08:28:06;;;;;;;;;;;;;;;;;;5073149;28;19940;-61
2023/03/22 08:30:32;;;;;;;;;;;;;;;;;;5073099;28;19909;-64
2023/03/22 08:32:58;;;;;;;;;;;;;;;;;;5072950;28;20018;-63
2023/03/22 08:35:24;;;;;;;;;;;;;;;;;;5072724;28;19904;-60
2023/03/22 08:37:50;;;;;;;;;;;;;;;;;;5077637;28;19909;-64
2023/03/22 08:40:16;;;;;;;;;;;;;;;;;;5087823;28;19939;-64
2023/03/22 08:42:42;;;;;;;;;;;;;;;;;;5061681;28;19905;-63
2023/03/22 08:45:09;;;;;;;;;;;;;;;;;;5072077;28;19904;-59
2023/03/22 08:47:35;;;;;;;;;;;;;;;;;;5072469;28;20336;-62
2023/03/22 08:50:00;;;;;;;;;;;;;;;;;;5072491;28;19908;-63
2023/03/22 08:52:26;;;;;;;;;;;;;;;;;;5072216;28;20352;-63
2023/03/22 08:54:53;;;;;;;;;;;;;;;;;;5072004;28;19905;-62
2023/03/22 08:57:20;;;;;;;;;;;;;;;;;;5054145;28;19912;-64
2023/03/22 08:59:46;;;;;;;;;;;;;;;;;;5072046;28;19954;-63
2023/03/22 09:02:12;;;;;;;;;;;;;;;;;;5072056;28;19944;-62
2023/03/22 09:04:38;;;;;;;;;;;;;;;;;;5071818;28;19908;-63
2023/03/22 09:07:04;;;;;;;;;;;;;;;;;;5072068;28;19911;-63
2023/03/22 09:09:30;;;;;;;;;;;;;;;;;;5054069;28;19905;-61
2023/03/22 09:11:56;;;;;;;;;;;;;;;;;;5071971;28;20360;-59
2023/03/22 09:14:22;;;;;;;;;;;;;;;;;;5071780;28;19927;-63
2023/03/22 09:16:48;;;;;;;;;;;;;;;;;;5071937;28;20370;-61
2023/03/22 09:19:15;;;;;;;;;;;;;;;;;;5072139;28;19911;-62
2023/03/22 09:21:41;;;;;;;;;;;;;;;;;;5071990;28;19915;-62
2023/03/22 09:24:07;;;;;;;;;;;;;;;;;;5064440;28;19940;-61
2023/03/22 09:26:33;;;;;;;;;;;;;;;;;;5076503;28;19908;-61
2023/03/22 09:28:59;;;;;;;;;;;;;;;;;;5076473;28;19969;-61
2023/03/22 09:31:25;;;;;;;;;;;;;;;;;;5053204;28;19954;-62
2023/03/22 09:33:51;;;;;;;;;;;;;;;;;;5069902;28;20321;-61
2023/03/22 09:36:17;;;;;;;;;;;;;;;;;;5069963;28;19962;-58
2023/03/22 09:38:44;;;;;;;;;;;;;;;;;;5070564;28;19939;-60
2023/03/22 09:41:10;;;;;;;;;;;;;;;;;;5070986;28;19915;-62
2023/03/22 09:43:36;;;;;;;;;;;;;;;;;;5069647;28;19908;-62
2023/03/22 09:46:02;;;;;;;;;;;;;;;;;;5071701;28;19946;-61
2023/03/22 09:48:28;;;;;;;;;;;;;;;;;;5071473;28;19908;-62
2023/03/22 09:50:54;;;;;;;;;;;;;;;;;;5070698;28;20007;-62
2023/03/22 09:53:20;;;;;;;;;;;;;;;;;;5071384;28;19916;-62
2023/03/22 09:55:46;;;;;;;;;;;;;;;;;;5053596;28;20376;-62
2023/03/22 09:58:12;;;;;;;;;;;;;;;;;;5053491;28;20474;-61
2023/03/22 10:00:38;;;;;;;;;;;;;;;;;;5053594;28;19930;-63
2023/03/22 10:03:04;;;;;;;;;;;;;;;;;;5053233;28;19935;-63
2023/03/22 10:05:30;;;;;;;;;;;;;;;;;;5071334;28;19911;-63
2023/03/22 10:07:55;;;;;;;;;;;;;;;;;;5071447;28;20258;-63
2023/03/22 10:10:21;;;;;;;;;;;;;;;;;;5071280;28;19911;-63
2023/03/22 10:12:47;;;;;;;;;;;;;;;;;;5071455;28;19912;-63
2023/03/22 10:15:13;;;;;;;;;;;;;;;;;;5071183;28;20418;-60
2023/03/22 10:17:39;;;;;;;;;;;;;;;;;;5053265;28;19908;-59
2023/03/22 10:20:07;;;;;;;;;;;;;;;;;;5071195;28;19911;-57
2023/03/22 10:22:32;;;;;;;;;;;;;;;;;;5071933;28;19992;-61
2023/03/22 10:24:58;;;;;;;;;;;;;;;;;;5070997;28;20332;-62
2023/03/22 10:27:24;;;;;;;;;;;;;;;;;;5071019;28;19912;-62
2023/03/22 10:29:50;;;;;;;;;;;;;;;;;;5071186;28;19911;-63
2023/03/22 10:32:16;;;;;;;;;;;;;;;;;;5071041;28;19911;-61
2023/03/22 10:34:42;;;;;;;;;;;;;;;;;;5071017;28;20326;-59
2023/03/22 10:37:08;;;;;;;;;;;;;;;;;;5070730;28;19915;-62
2023/03/22 10:39:34;;;;;;;;;;;;;;;;;;5053148;28;19904;-61
2023/03/22 10:42:00;;;;;;;;;;;;;;;;;;5050782;28;20280;-61
2023/03/22 10:44:26;;;;;;;;;;;;;;;;;;5066171;28;20008;-63
2023/03/22 10:46:52;;;;;;;;;;;;;;;;;;5070408;28;19911;-62
2023/03/22 10:49:18;;;;;;;;;;;;;;;;;;5070722;28;20340;-59
2023/03/22 10:51:44;;;;;;;;;;;;;;;;;;5070625;28;20265;-59
2023/03/22 10:54:09;;;;;;;;;;;;;;;;;;5070589;28;20326;-61
2023/03/22 10:56:35;;;;;;;;;;;;;;;;;;4710778;28;10000413;-61
2023/03/22 10:59:01;;;;;;;;;;;;;;;;;;5065183;28;20368;-58
2023/03/22 11:01:27;;;;;;;;;;;;;;;;;;5048753;28;20001;-61
2023/03/22 11:03:53;;;;;;;;;;;;;;;;;;5055313;28;20387;-60
2023/03/22 11:06:19;;;;;;;;;;;;;;;;;;5071307;28;20337;-60
2023/03/22 11:08:45;;;;;;;;;;;;;;;;;;5050282;28;19908;-59
2023/03/22 11:11:11;;;;;;;;;;;;;;;;;;5066235;28;19919;-63
2023/03/22 11:13:37;;;;;;;;;;;;;;;;;;5055990;28;20395;-58
2023/03/22 11:16:03;;;;;;;;;;;;;;;;;;5073186;28;19919;-60
2023/03/22 11:18:30;;;;;;;;;;;;;;;;;;5068055;28;19974;-58
2023/03/22 11:20:56;;;;;;;;;;;;;;;;;;5060698;28;19914;-58
2023/03/22 11:23:22;;;;;;;;;;;;;;;;;;5070124;28;19908;-54
2023/03/22 11:25:48;;;;;;;;;;;;;;;;;;5071365;28;19992;-57
2023/03/22 11:28:14;;;;;;;;;;;;;;;;;;5070842;28;19915;-60
2023/03/22 11:30:40;;;;;;;;;;;;;;;;;;5055834;28;20385;-62
2023/03/22 11:33:06;;;;;;;;;;;;;;;;;;5050678;28;19908;-62
2023/03/22 11:35:32;;;;;;;;;;;;;;;;;;5051036;28;20400;-62
2023/03/22 11:38:00;;;;;;;;;;;;;;;;;;5050708;28;20847;-61
2023/03/22 11:40:26;;;;;;;;;;;;;;;;;;5050891;28;19931;-60
2023/03/22 11:42:51;;;;;;;;;;;;;;;;;;5050822;28;20357;-60
2023/03/22 11:45:17;;;;;;;;;;;;;;;;;;5050350;28;19908;-62
2023/03/22 11:47:43;;;;;;;;;;;;;;;;;;5032688;28;19908;-63
2023/03/22 11:50:09;;;;;;;;;;;;;;;;;;5050664;28;19955;-63
2023/03/22 11:52:35;;;;;;;;;;;;;;;;;;5050827;28;19915;-63
2023/03/22 11:55:01;;;;;;;;;;;;;;;;;;5054668;28;19912;-62
2023/03/22 11:57:27;;;;;;;;;;;;;;;;;;5105064;22;20282;-59
2023/03/22 11:59:53;;;;;;;;;;;;;;;;;;5089196;28;19916;-55
2023/03/22 12:02:19;;;;;;;;;;;;;;;;;;5072053;28;19904;-61
2023/03/22 12:04:45;;;;;;;;;;;;;;;;;;5087292;28;19908;-59
2023/03/22 12:07:11;;;;;;;;;;;;;;;;;;5085639;28;20294;-61
2023/03/22 12:09:36;;;;;;;;;;;;;;;;;;5089708;28;19919;-60
2023/03/22 12:12:03;;;;;;;;;;;;;;;;;;5089718;28;19911;-64
2023/03/22 12:14:29;;;;;;;;;;;;;;;;;;5088715;28;19908;-59
2023/03/22 12:16:55;;;;;;;;;;;;;;;;;;5089554;28;20401;-62
2023/03/22 12:19:22;;;;;;;;;;;;;;;;;;5089387;28;19949;-63
2023/03/22 12:21:48;;;;;;;;;;;;;;;;;;5068841;28;19947;-63
2023/03/22 12:24:14;;;;;;;;;;;;;;;;;;5088417;28;19997;-57
2023/03/22 12:26:40;;;;;;;;;;;;;;;;;;5088813;28;20387;-57
2023/03/22 12:29:07;;;;;;;;;;;;;;;;;;5089222;28;19973;-61
2023/03/22 12:31:32;;;;;;;;;;;;;;;;;;5089262;28;19904;-62
2023/03/22 12:33:58;;;;;;;;;;;;;;;;;;5088974;28;19915;-62
2023/03/22 12:36:25;;;;;;;;;;;;;;;;;;5070916;28;20044;-57
2023/03/22 12:38:51;;;;;;;;;;;;;;;;;;5089241;28;19933;-63
2023/03/22 12:41:17;;;;;;;;;;;;;;;;;;5071067;28;19904;-61
2023/03/22 12:43:43;;;;;;;;;;;;;;;;;;5088986;28;19908;-62
2023/03/22 12:46:09;;;;;;;;;;;;;;;;;;5088703;28;20034;-57
2023/03/22 12:48:35;;;;;;;;;;;;;;;;;;5088860;28;20374;-62
2023/03/22 12:51:00;;;;;;;;;;;;;;;;;;5089194;28;20011;-59
2023/03/22 12:53:26;;;;;;;;;;;;;;;;;;5089132;28;19914;-62
2023/03/22 12:55:54;;;;;;;;;;;;;;;;;;5085290;28;19920;-66
2023/03/22 12:58:20;;;;;;;;;;;;;;;;;;5087855;28;19911;-60
2023/03/22 13:00:46;;;;;;;;;;;;;;;;;;5089832;28;19961;-64
2023/03/22 13:03:11;;;;;;;;;;;;;;;;;;5089502;28;20344;-62
2023/03/22 13:05:37;;;;;;;;;;;;;;;;;;5089288;28;19908;-60
2023/03/22 13:08:04;;;;;;;;;;;;;;;;;;5088695;28;20560;-62
2023/03/22 13:10:35;;;;;;;;;;;;;;;;;;5088018;28;19904;-58
2023/03/22 13:13:01;;;;;;;;;;;;;;;;;;5088399;28;20310;-54
2023/03/22 13:15:27;;;;;;;;;;;;;;;;;;5087947;28;19927;-56
2023/03/22 13:17:52;;;;;;;;;;;;;;;;;;5087504;28;19919;-62
2023/03/22 13:20:20;;;;;;;;;;;;;;;;;;5088093;28;20287;-60
2023/03/22 13:22:46;;;;;;;;;;;;;;;;;;5087864;28;19915;-63
2023/03/22 13:25:12;;;;;;;;;;;;;;;;;;5087567;28;19908;-61
2023/03/22 13:27:38;;;;;;;;;;;;;;;;;;5087800;28;20384;-60
2023/03/22 13:30:06;;;;;;;;;;;;;;;;;;5087909;28;19911;-62
2023/03/22 13:32:32;;;;;;;;;;;;;;;;;;5087705;28;19908;-59
2023/03/22 13:34:59;;;;;;;;;;;;;;;;;;5087234;28;19919;-62
2023/03/22 13:37:29;;;;;;;;;;;;;;;;;;5087573;28;19918;-62
2023/03/22 13:39:55;;;;;;;;;;;;;;;;;;5087829;28;19904;-62
2023/03/22 13:42:21;;;;;;;;;;;;;;;;;;5087447;28;20390;-60
2023/03/22 13:44:47;;;;;;;;;;;;;;;;;;5087389;28;19999;-58
2023/03/22 13:47:13;;;;;;;;;;;;;;;;;;5087773;28;20047;-61
2023/03/22 13:49:39;;;;;;;;;;;;;;;;;;5087545;28;20534;-61
2023/03/22 13:52:05;;;;;;;;;;;;;;;;;;5087667;28;19912;-58
2023/03/22 13:54:31;;;;;;;;;;;;;;;;;;5087668;28;19988;-59
2023/03/22 13:56:59;;;;;;;;;;;;;;;;;;5079387;28;19942;-61
2023/03/22 13:59:26;;;;;;;;;;;;;;;;;;5077711;28;19950;-61
2023/03/22 14:01:51;;;;;;;;;;;;;;;;;;5076846;28;20284;-59
2023/03/22 14:04:21;;;;;;;;;;;;;;;;;;5076516;28;19914;-59
2023/03/22 14:06:47;;;;;;;;;;;;;;;;;;5076394;28;19912;-62
2023/03/22 14:09:13;;;;;;;;;;;;;;;;;;5076613;28;19908;-61
2023/03/22 14:11:39;;;;;;;;;;;;;;;;;;5075803;28;19912;-61
2023/03/22 14:14:05;;;;;;;;;;;;;;;;;;5077883;28;20446;-60
2023/03/22 14:16:31;;;;;;;;;;;;;;;;;;5077767;28;19908;-61
2023/03/22 14:18:57;;;;;;;;;;;;;;;;;;5077081;28;19955;-61
2023/03/22 14:21:23;;;;;;;;;;;;;;;;;;5078927;28;20025;-60
2023/03/22 14:23:49;;;;;;;;;;;;;;;;;;5075664;28;19912;-60
2023/03/22 14:26:15;;;;;;;;;;;;;;;;;;5077983;28;19976;-61
2023/03/22 14:28:41;;;;;;;;;;;;;;;;;;5060325;28;19916;-58
2023/03/22 14:31:06;;;;;;;;;;;;;;;;;;5080997;28;20437;-62
2023/03/22 14:33:36;;;;;;;;;;;;;;;;;;5090092;28;19930;-60
2023/03/22 14:36:03;;;;;;;;;;;;;;;;;;4740708;28;9999912;-61
2023/03/22 14:38:31;;;;;;;;;;;;;;;;;;5096444;28;19915;-60
2023/03/22 14:40:57;;;;;;;;;;;;;;;;;;5074007;28;19908;-60
2023/03/22 14:43:23;;;;;;;;;;;;;;;;;;5092247;28;19908;-61
2023/03/22 14:45:49;;;;;;;;;;;;;;;;;;5091577;28;19960;-64
2023/03/22 14:48:16;;;;;;;;;;;;;;;;;;5091502;28;19908;-63
2023/03/22 14:50:42;;;;;;;;;;;;;;;;;;5091003;28;20887;-57
2023/03/22 14:53:08;;;;;;;;;;;;;;;;;;5091000;28;19912;-60
2023/03/22 14:55:35;;;;;;;;;;;;;;;;;;5090929;28;19911;-60
2023/03/22 14:58:03;;;;;;;;;;;;;;;;;;5072938;28;19912;-58
2023/03/22 15:00:29;;;;;;;;;;;;;;;;;;5091121;28;19908;-61
2023/03/22 15:02:55;;;;;;;;;;;;;;;;;;5084779;28;19927;-63
2023/03/22 15:05:21;;;;;;;;;;;;;;;;;;5081856;28;20430;-58
2023/03/22 15:07:47;;;;;;;;;;;;;;;;;;5090661;28;19904;-63
2023/03/22 15:10:13;;;;;;;;;;;;;;;;;;5090500;28;20510;-58
2023/03/22 15:12:39;;;;;;;;;;;;;;;;;;5090751;28;19935;-59
2023/03/22 15:15:05;;;;;;;;;;;;;;;;;;5090538;28;20347;-58
2023/03/22 15:17:36;;;;;;;;;;;;;;;;;;5072878;28;20002;-59
2023/03/22 15:20:03;;;;;;;;;;;;;;;;;;5091196;28;19904;-63
2023/03/22 15:22:29;;;;;;;;;;;;;;;;;;5090890;28;19915;-60
2023/03/22 15:24:55;;;;;;;;;;;;;;;;;;5090302;28;20271;-58
2023/03/22 15:27:21;;;;;;;;;;;;;;;;;;5090781;28;19927;-62
2023/03/22 15:29:47;;;;;;;;;;;;;;;;;;5090945;28;20379;-62
2023/03/22 15:32:13;;;;;;;;;;;;;;;;;;5090420;28;19911;-62
2023/03/22 15:34:39;;;;;;;;;;;;;;;;;;5071892;28;19908;-62
2023/03/22 15:37:05;;;;;;;;;;;;;;;;;;5090646;28;20032;-60
2023/03/22 15:39:31;;;;;;;;;;;;;;;;;;5090883;28;20547;-61
2023/03/22 15:41:58;;;;;;;;;;;;;;;;;;5090531;28;19939;-61
2023/03/22 15:44:24;;;;;;;;;;;;;;;;;;5090193;28;19908;-61
2023/03/22 15:46:50;;;;;;;;;;;;;;;;;;5090179;28;19914;-62
2023/03/22 15:49:17;;;;;;;;;;;;;;;;;;5089563;28;19935;-61
2023/03/22 15:51:44;;;;;;;;;;;;;;;;;;5072724;28;20352;-62
2023/03/22 15:54:09;;;;;;;;;;;;;;;;;;5090477;28;20291;-62
2023/03/22 15:56:35;;;;;;;;;;;;;;;;;;5090268;28;19919;-62
2023/03/22 15:59:01;;;;;;;;;;;;;;;;;;5093222;28;19969;-62
2023/03/22 16:01:27;;;;;;;;;;;;;;;;;;5099779;28;19922;-62
2023/03/22 16:03:55;;;;;;;;;;;;;;;;;;5096230;28;19908;-59
2023/03/22 16:06:21;;;;;;;;;;;;;;;;;;5093537;28;19911;-59
2023/03/22 16:08:47;;;;;;;;;;;;;;;;;;5092843;28;19935;-58
2023/03/22 16:11:13;;;;;;;;;;;;;;;;;;4739499;28;9999917;-58
2023/03/22 16:13:39;;;;;;;;;;;;;;;;;;5089574;28;19975;-59
2023/03/22 16:16:06;;;;;;;;;;;;;;;;;;5089753;28;19915;-59
2023/03/22 16:18:31;;;;;;;;;;;;;;;;;;5089831;28;20299;-59
2023/03/22 16:20:58;;;;;;;;;;;;;;;;;;5089846;28;19904;-57
2023/03/22 16:23:24;;;;;;;;;;;;;;;;;;5089693;28;19944;-62
2023/03/22 16:25:50;;;;;;;;;;;;;;;;;;5089849;28;19904;-62
2023/03/22 16:28:16;;;;;;;;;;;;;;;;;;5071816;28;19961;-60
2023/03/22 16:30:42;;;;;;;;;;;;;;;;;;5089748;28;20344;-57
2023/03/22 16:33:08;;;;;;;;;;;;;;;;;;5089660;28;19951;-62
2023/03/22 16:35:34;;;;;;;;;;;;;;;;;;5089959;28;20348;-61
2023/03/22 16:38:00;;;;;;;;;;;;;;;;;;5093111;28;19923;-64